Time;durP1;ratioP1;P1;durP2;ratioP2;P2;SDS_P1;SDS_P2;PMS_P1;PMS_P2;Temp;Humidity;BMP_temperature;BMP_pressure;BME280_temperature;BME280_humidity;BME280_pressure;Samples;Min_cycle;Max_cycle;Signal;HPM_P1;HPM_P2
2022/08/16 00:00:07;;;;;;;;;;;;;;;19.50;100.00;98626.26;1695147;84;20205;-82
2022/08/16 00:02:34;;;;;;;;;;;;;;;19.50;100.00;98624.07;1694924;84;20111;-83
2022/08/16 00:05:00;;;;;;;;;;;;;;;19.51;100.00;98627.88;1695147;84;21494;-83
2022/08/16 00:07:28;;;;;;;;;;;;;;;19.52;100.00;98628.08;1697022;84;20098;-83
2022/08/16 00:09:55;;;;;;;;;;;;;;;19.53;100.00;98628.87;1697032;84;20449;-82
2022/08/16 00:12:22;;;;;;;;;;;;;;;19.53;100.00;98619.92;1697071;84;20099;-83
2022/08/16 00:14:48;;;;;;;;;;;;;;;19.54;100.00;98622.91;1677275;84;20114;-82
2022/08/16 00:17:14;;;;;;;;;;;;;;;19.53;100.00;98609.39;1697288;84;20775;-82
2022/08/16 00:19:40;;;;;;;;;;;;;;;19.51;100.00;98600.05;1697024;84;20150;-83
2022/08/16 00:22:06;;;;;;;;;;;;;;;19.52;100.00;98591.89;1697095;84;20438;-83
2022/08/16 00:24:33;;;;;;;;;;;;;;;19.51;100.00;98580.56;1697015;84;20118;-83
2022/08/16 00:27:02;;;;;;;;;;;;;;;19.48;100.00;98569.39;1697100;84;20125;-82
2022/08/16 00:29:28;;;;;;;;;;;;;;;19.45;100.00;98569.59;1696784;83;21262;-86
2022/08/16 00:31:55;;;;;;;;;;;;;;;19.42;100.00;98584.31;1697305;84;20432;-86
2022/08/16 00:34:21;;;;;;;;;;;;;;;19.36;100.00;98593.65;1697058;84;20145;-88
2022/08/16 00:36:47;;;;;;;;;;;;;;;19.30;100.00;98595.23;1697033;84;20478;-87
2022/08/16 00:39:15;;;;;;;;;;;;;;;19.26;100.00;98604.77;1697299;84;20122;-87
2022/08/16 00:41:41;;;;;;;;;;;;;;;19.23;100.00;98593.05;1697380;84;21198;-85
2022/08/16 00:44:10;;;;;;;;;;;;;;;19.23;100.00;98584.10;1697047;84;20079;-78
2022/08/16 00:46:43;;;;;;;;;;;;;;;19.23;100.00;98586.09;1697243;84;20118;-79
2022/08/16 00:49:10;;;;;;;;;;;;;;;19.21;100.00;98596.22;1676461;84;20154;-79
2022/08/16 00:51:36;;;;;;;;;;;;;;;19.21;100.00;98598.20;1697049;84;20094;-83
2022/08/16 00:54:03;;;;;;;;;;;;;;;19.21;100.00;98603.17;1697387;84;21754;-83
2022/08/16 00:56:30;;;;;;;;;;;;;;;19.23;100.00;98599.41;1696958;84;20531;-86
2022/08/16 00:58:57;;;;;;;;;;;;;;;19.26;100.00;98588.88;1697053;84;20122;-88
2022/08/16 01:01:23;;;;;;;;;;;;;;;19.29;100.00;98587.28;1697354;84;20074;-89
2022/08/16 01:03:51;;;;;;;;;;;;;;;19.29;100.00;98602.59;1697311;84;20166;-81
2022/08/16 01:06:20;;;;;;;;;;;;;;;19.27;100.00;98607.16;1695478;83;21110;-85
2022/08/16 01:08:50;;;;;;;;;;;;;;;19.26;100.00;98589.47;1695008;84;20450;-88
2022/08/16 01:11:16;;;;;;;;;;;;;;;19.25;100.00;98572.58;1694804;84;20179;-86
2022/08/16 01:13:43;;;;;;;;;;;;;;;19.26;100.00;98586.69;1695149;84;20102;-88
2022/08/16 01:16:15;;;;;;;;;;;;;;;19.28;100.00;98575.95;1694827;84;20567;-87
2022/08/16 01:18:44;;;;;;;;;;;;;;;19.29;100.00;98561.64;1694707;84;21782;-87
2022/08/16 01:21:24;;;;;;;;;;;;;;;19.31;100.00;98533.42;1695054;84;20098;-87
2022/08/16 01:24:13;;;;;;;;;;;;;;;19.32;100.00;98516.92;1695002;84;20475;-83
2022/08/16 01:26:40;;;;;;;;;;;;;;;19.33;100.00;98517.13;1695031;84;20142;-81
2022/08/16 01:29:08;;;;;;;;;;;;;;;19.32;100.00;98515.53;1694746;84;20173;-81
2022/08/16 01:31:35;;;;;;;;;;;;;;;19.32;100.00;98505.80;1694978;84;21115;-82
2022/08/16 01:34:01;;;;;;;;;;;;;;;19.34;100.00;98517.33;1674732;84;20090;-82
2022/08/16 01:36:29;;;;;;;;;;;;;;;19.33;100.00;98523.48;1675045;84;20102;-83
2022/08/16 01:38:55;;;;;;;;;;;;;;;19.35;100.00;98532.83;1695103;84;20122;-82
2022/08/16 01:41:25;;;;;;;;;;;;;;;19.34;100.00;98538.19;1694819;84;36998;-81
2022/08/16 01:43:53;;;;;;;;;;;;;;;19.33;100.00;98540.18;1694962;84;21560;-80
2022/08/16 01:46:32;;;;;;;;;;;;;;;19.33;100.00;98542.97;1694980;84;20165;-82
2022/08/16 01:49:03;;;;;;;;;;;;;;;19.32;100.00;98539.98;1675465;84;20145;-84
2022/08/16 01:51:30;;;;;;;;;;;;;;;19.32;100.00;98537.80;1695038;84;20149;-84
2022/08/16 01:53:57;;;;;;;;;;;;;;;19.31;100.00;98543.16;1694752;84;20087;-85
2022/08/16 01:56:26;;;;;;;;;;;;;;;19.29;100.00;98536.60;1694126;84;21153;-85
2022/08/16 01:58:55;;;;;;;;;;;;;;;19.29;100.00;98536.60;1694956;84;20099;-80
2022/08/16 02:01:22;;;;;;;;;;;;;;;19.27;100.00;98535.41;1694845;84;20097;-80
2022/08/16 02:03:49;;;;;;;;;;;;;;;19.26;100.00;98535.21;1694820;84;20148;-80
2022/08/16 02:06:16;;;;;;;;;;;;;;;19.25;100.00;98532.23;1695825;83;20444;-80
2022/08/16 02:08:43;;;;;;;;;;;;;;;19.25;100.00;98537.80;1696969;84;21086;-79
2022/08/16 02:11:09;;;;;;;;;;;;;;;19.25;100.00;98530.84;1697007;84;20086;-80
2022/08/16 07:41:56;;;;;;;;;;;;;;;23.98;80.66;98635.72;1697088;80;20524;-78
2022/08/16 07:44:27;;;;;;;;;;;;;;;24.15;79.85;98628.20;1693911;84;20116;-83
2022/08/16 07:47:01;;;;;;;;;;;;;;;24.22;80.22;98628.68;1667789;84;20450;-79
2022/08/16 07:49:28;;;;;;;;;;;;;;;24.30;80.12;98632.94;1695006;84;20156;-77
2022/08/16 07:51:57;;;;;;;;;;;;;;;24.40;80.52;98615.11;1693626;84;21117;-76
2022/08/16 07:54:29;;;;;;;;;;;;;;;24.55;81.02;98624.03;1693319;84;20204;-76
2022/08/16 07:56:56;;;;;;;;;;;;;;;24.71;80.05;98619.89;1664797;84;20132;-74
2022/08/16 07:59:30;;;;;;;;;;;;;;;24.81;80.57;98620.89;1693024;84;20613;-83
2022/08/16 08:01:58;;;;;;;;;;;;;;;24.94;79.70;98616.16;1692000;84;20107;-85
2022/08/16 08:04:31;;;;;;;;;;;;;;;25.13;80.39;98618.78;1687716;84;20128;-81
2022/08/16 08:06:56;;;;;;;;;;;;;;;25.29;80.34;98601.34;1692780;84;20128;-82
2022/08/16 08:09:26;;;;;;;;;;;;;;;25.41;77.37;98609.70;1693060;84;20215;-77
2022/08/16 08:11:55;;;;;;;;;;;;;;;25.47;77.89;98596.68;1692977;84;20183;-82
2022/08/16 08:14:27;;;;;;;;;;;;;;;25.58;77.65;98592.99;1661466;86;20194;-75
2022/08/16 08:16:54;;;;;;;;;;;;;;;25.65;75.84;98593.46;1639676;86;21823;-78
2022/08/16 08:19:27;;;;;;;;;;;;;;;25.74;77.81;98592.84;1665675;86;20166;-75
2022/08/16 08:21:53;;;;;;;;;;;;;;;25.84;76.75;98593.18;1665495;86;20210;-83
2022/08/16 08:24:27;;;;;;;;;;;;;;;25.94;76.79;98596.33;1665364;86;20210;-81
2022/08/16 08:27:01;;;;;;;;;;;;;;;26.05;78.75;98592.59;1665895;86;20166;-82
2022/08/16 08:29:32;;;;;;;;;;;;;;;26.23;77.07;98594.30;1690763;83;21189;-84
2022/08/16 08:31:57;;;;;;;;;;;;;;;26.39;75.75;98587.86;1685870;85;20614;-82
2022/08/16 08:34:25;;;;;;;;;;;;;;;26.55;75.52;98596.86;1687891;85;20127;-79
2022/08/16 08:36:55;;;;;;;;;;;;;;;26.56;73.00;98592.20;1687833;85;20132;-82
2022/08/16 08:39:26;;;;;;;;;;;;;;;26.53;74.27;98593.70;1685873;85;20144;-78
2022/08/16 08:41:55;;;;;;;;;;;;;;;26.51;74.81;98598.99;1685874;85;21176;-79
2022/08/16 08:44:26;;;;;;;;;;;;;;;26.54;73.71;98588.25;1691009;84;20186;-80
2022/08/16 08:47:02;;;;;;;;;;;;;;;26.51;74.73;98604.62;1660091;86;20871;-77
2022/08/16 08:49:36;;;;;;;;;;;;;;;26.50;73.05;98593.98;1633455;86;20498;-79
2022/08/16 08:51:59;;;;;;;;;;;;;;;26.40;73.16;98596.48;1639450;86;20176;-82
2022/08/16 08:54:26;;;;;;;;;;;;;;;26.39;75.44;98601.14;1639126;87;21218;-76
2022/08/16 08:57:01;;;;;;;;;;;;;;;26.38;73.16;98605.98;1634170;86;20097;-78
2022/08/16 08:59:31;;;;;;;;;;;;;;;26.32;73.94;98603.54;1665422;86;20150;-80
2022/08/16 09:02:07;;;;;;;;;;;;;;;26.31;74.96;98607.59;1664987;86;20129;-82
2022/08/16 09:04:39;;;;;;;;;;;;;;;26.25;74.71;98605.91;1665732;86;20175;-79
2022/08/16 09:07:09;;;;;;;;;;;;;;;26.19;74.61;98600.64;1664330;86;21054;-82
2022/08/16 09:09:42;;;;;;;;;;;;;;;26.21;75.87;98600.20;1666083;86;20467;-78
2022/08/16 09:12:17;;;;;;;;;;;;;;;26.24;75.74;98604.32;1644284;86;20091;-80
2022/08/16 09:14:46;;;;;;;;;;;;;;;26.24;75.85;98600.09;1665657;86;20150;-81
2022/08/16 09:17:17;;;;;;;;;;;;;;;26.25;76.58;98603.70;1664868;86;20121;-81
2022/08/16 09:19:49;;;;;;;;;;;;;;;26.30;75.46;98606.77;1665966;86;21158;-83
2022/08/16 09:22:20;;;;;;;;;;;;;;;26.33;74.36;98598.70;1665547;86;20453;-82
2022/08/16 09:24:49;;;;;;;;;;;;;;;26.24;75.64;98599.31;1665554;86;20137;-82
2022/08/16 09:27:17;;;;;;;;;;;;;;;26.21;76.02;98603.80;1644684;86;20444;-81
2022/08/16 09:29:45;;;;;;;;;;;;;;;26.23;77.08;98609.77;1666286;84;20097;-82
2022/08/16 09:32:17;;;;;;;;;;;;;;;26.29;78.12;98610.02;1694205;84;21524;-82
2022/08/16 09:34:54;;;;;;;;;;;;;;;26.36;77.80;98611.27;1694343;84;20147;-81
2022/08/16 09:37:26;;;;;;;;;;;;;;;26.43;75.87;98615.91;1693725;84;20194;-82
2022/08/16 09:39:52;;;;;;;;;;;;;;;26.42;75.93;98619.95;1693188;84;20584;-82
2022/08/16 09:42:27;;;;;;;;;;;;;;;26.42;75.80;98619.95;1693990;84;20147;-78
2022/08/16 09:44:56;;;;;;;;;;;;;;;26.37;75.78;98613.46;1696964;83;20202;-76
2022/08/16 09:47:26;;;;;;;;;;;;;;;26.36;76.71;98615.48;1722135;83;20141;-82
2022/08/16 09:49:55;;;;;;;;;;;;;;;26.43;75.76;98622.94;1694533;83;20150;-80
2022/08/16 09:52:23;;;;;;;;;;;;;;;26.57;74.64;98630.98;1692298;84;20123;-81
2022/08/16 09:54:58;;;;;;;;;;;;;;;26.74;73.89;98628.86;1690887;84;21041;-81
2022/08/16 09:57:22;;;;;;;;;;;;;;;26.80;72.40;98629.27;1690884;85;21756;-86
2022/08/16 09:59:48;;;;;;;;;;;;;;;26.78;73.13;98634.56;1691888;84;20199;-80
2022/08/16 10:02:18;;;;;;;;;;;;;;;26.69;73.94;98630.81;1691915;85;20076;-88
2022/08/16 10:04:51;;;;;;;;;;;;;;;26.59;75.25;98643.34;1691714;85;20173;-82
2022/08/16 10:07:18;;;;;;;;;;;;;;;26.53;76.02;98641.55;1691521;84;20230;-81
2022/08/16 10:09:46;;;;;;;;;;;;;;;26.50;75.37;98644.63;1690392;85;21143;-84
2022/08/16 10:15:03;;;;;;;;;;;;;;;26.58;76.48;98646.59;1691840;85;20155;-78
2022/08/16 10:17:34;;;;;;;;;;;;;;;26.56;76.21;98660.36;1668631;85;20140;-76
2022/08/16 10:20:00;;;;;;;;;;;;;;;26.50;76.32;98649.47;1691196;85;20142;-79
2022/08/16 10:22:26;;;;;;;;;;;;;;;26.46;76.62;98651.59;1692313;85;21500;-75
2022/08/16 10:24:55;;;;;;;;;;;;;;;26.41;77.15;98659.17;1692251;85;20186;-79
2022/08/16 10:27:28;;;;;;;;;;;;;;;26.21;76.89;98662.08;1691247;85;20482;-81
2022/08/16 10:30:07;;;;;;;;;;;;;;;25.95;76.96;98669.61;1691871;85;20449;-81
2022/08/16 10:32:30;;;;;;;;;;;;;;;25.62;77.94;98663.95;1691526;84;20170;-77
2022/08/16 10:35:02;;;;;;;;;;;;;;;25.32;79.58;98679.12;1669757;85;20113;-80
2022/08/16 10:37:31;;;;;;;;;;;;;;;25.01;79.87;98677.81;1691652;85;20116;-76
2022/08/16 10:40:00;;;;;;;;;;;;;;;24.77;81.36;98686.92;1692072;83;20148;-80
2022/08/16 10:42:27;;;;;;;;;;;;;;;24.66;82.97;98683.53;1691696;85;20136;-78
2022/08/16 10:44:58;;;;;;;;;;;;;;;24.95;84.07;98676.70;1686929;85;20250;-78
2022/08/16 10:47:29;;;;;;;;;;;;;;;25.39;82.96;98676.77;1685276;85;21296;-77
2022/08/16 10:49:54;;;;;;;;;;;;;;;25.69;79.73;98679.09;1686723;85;20195;-78
2022/08/16 10:52:21;;;;;;;;;;;;;;;25.81;78.66;98680.59;1687648;85;20247;-73
2022/08/16 10:54:52;;;;;;;;;;;;;;;25.83;78.42;98683.75;1687715;83;20238;-76
2022/08/16 10:57:26;;;;;;;;;;;;;;;25.70;78.35;98687.09;1686547;85;20197;-78
2022/08/16 10:59:55;;;;;;;;;;;;;;;25.47;79.33;98693.61;1686320;85;22103;-79
2022/08/16 11:02:28;;;;;;;;;;;;;;;25.27;81.06;98690.87;1666245;85;20469;-77
2022/08/16 11:05:05;;;;;;;;;;;;;;;25.14;81.96;98694.78;1687264;84;20163;-78
2022/08/16 11:07:26;;;;;;;;;;;;;;;25.05;82.75;98693.97;1684970;85;20199;-81
2022/08/16 11:10:01;;;;;;;;;;;;;;;25.04;83.29;98697.20;1686831;83;20180;-76
2022/08/16 11:12:31;;;;;;;;;;;;;;;24.89;82.46;98697.47;1686905;85;21875;-82
2022/08/16 11:15:01;;;;;;;;;;;;;;;24.79;83.98;98698.51;1687236;85;20156;-78
2022/08/16 11:17:31;;;;;;;;;;;;;;;24.81;85.70;98698.87;1686421;84;20156;-74
2022/08/16 11:20:01;;;;;;;;;;;;;;;24.90;85.77;98708.09;1687162;83;20185;-79
2022/08/16 11:22:30;;;;;;;;;;;;;;;24.99;85.98;98712.55;1687838;84;20124;-77
2022/08/16 11:24:59;;;;;;;;;;;;;;;25.07;85.79;98716.00;1687143;85;21106;-74
2022/08/16 11:27:25;;;;;;;;;;;;;;;25.04;83.68;98716.25;1687581;83;20120;-76
2022/08/16 11:30:00;;;;;;;;;;;;;;;24.94;84.98;98720.83;1687515;85;20128;-74
2022/08/16 11:32:27;;;;;;;;;;;;;;;24.91;85.88;98727.92;1686490;84;20175;-72
2022/08/16 11:34:55;;;;;;;;;;;;;;;24.98;85.15;98721.58;1680923;85;20195;-73
2022/08/16 11:37:23;;;;;;;;;;;;;;;25.01;84.88;98717.11;1664853;85;20228;-75
2022/08/16 11:39:51;;;;;;;;;;;;;;;25.04;85.82;98719.67;1686056;84;20145;-75
2022/08/16 11:42:27;;;;;;;;;;;;;;;25.13;85.53;98726.91;1663506;85;20215;-73
2022/08/16 11:44:58;;;;;;;;;;;;;;;25.22;83.49;98727.11;1685834;84;20172;-75
2022/08/16 11:47:26;;;;;;;;;;;;;;;25.25;83.40;98722.82;1664965;85;20159;-76
2022/08/16 11:49:52;;;;;;;;;;;;;;;25.27;84.07;98730.81;1686938;84;21234;-77
2022/08/16 11:52:22;;;;;;;;;;;;;;;25.19;82.67;98729.38;1688165;83;20128;-80
2022/08/16 11:54:54;;;;;;;;;;;;;;;25.11;85.04;98721.72;1688322;84;20144;-86
2022/08/16 11:57:23;;;;;;;;;;;;;;;25.01;85.07;98737.56;1688300;85;20155;-74
2022/08/16 11:59:50;;;;;;;;;;;;;;;24.87;86.33;98736.41;1688306;83;20438;-76
2022/08/16 12:02:20;;;;;;;;;;;;;;;24.74;86.74;98736.11;1688506;85;21163;-71
2022/08/16 12:04:46;;;;;;;;;;;;;;;24.58;88.03;98735.40;1687793;83;20160;-72
2022/08/16 12:07:20;;;;;;;;;;;;;;;24.46;88.21;98738.83;1667007;85;20577;-72
2022/08/16 12:09:47;;;;;;;;;;;;;;;24.29;89.00;98740.12;1688520;83;20458;-73
2022/08/16 12:12:17;;;;;;;;;;;;;;;24.12;89.78;98739.80;1688321;85;20148;-71
2022/08/16 12:14:45;;;;;;;;;;;;;;;24.03;90.86;98736.75;1688312;83;21185;-76
2022/08/16 12:17:17;;;;;;;;;;;;;;;23.98;91.82;98742.84;1687391;83;20485;-77
2022/08/16 12:19:46;;;;;;;;;;;;;;;23.88;91.63;98742.41;1688174;85;20167;-76
2022/08/16 12:22:25;;;;;;;;;;;;;;;23.79;93.06;98739.34;1666379;85;20470;-77
2022/08/16 12:24:55;;;;;;;;;;;;;;;23.71;93.06;98739.45;1665837;85;20108;-73
2022/08/16 12:27:23;;;;;;;;;;;;;;;23.67;93.86;98752.75;1688081;85;21225;-76
2022/08/16 12:29:54;;;;;;;;;;;;;;;23.77;94.21;98748.17;1687999;84;20132;-71
2022/08/16 12:32:26;;;;;;;;;;;;;;;23.90;92.55;98748.38;1688511;84;20141;-79
2022/08/16 12:34:54;;;;;;;;;;;;;;;23.95;92.31;98736.69;1687978;85;20466;-75
2022/08/16 12:37:26;;;;;;;;;;;;;;;24.01;92.59;98744.80;1645319;85;20450;-74
2022/08/16 12:39:56;;;;;;;;;;;;;;;24.16;91.29;98736.95;1687799;83;21304;-82
2022/08/16 12:42:31;;;;;;;;;;;;;;;24.41;92.28;98728.89;1688052;85;20148;-74
2022/08/16 12:44:58;;;;;;;;;;;;;;;24.69;89.91;98737.39;1688118;83;20120;-72
2022/08/16 12:50:24;;;;;;;;;;;;;;;25.00;87.39;98730.97;1675820;84;20131;-77
2022/08/16 12:52:49;;;;;;;;;;;;;;;25.18;87.30;98726.39;1695175;83;21863;-77
2022/08/16 12:55:25;;;;;;;;;;;;;;;25.65;84.74;98722.13;1694795;83;20151;-79
2022/08/16 12:57:58;;;;;;;;;;;;;;;26.06;83.38;98712.28;1694842;84;20132;-79
2022/08/16 13:00:32;;;;;;;;;;;;;;;26.37;80.98;98717.56;1675174;84;20147;-78
2022/08/16 13:03:11;;;;;;;;;;;;;;;26.60;79.22;98716.70;1695209;84;20147;-79
2022/08/16 13:05:41;;;;;;;;;;;;;;;26.92;77.86;98713.61;1694591;84;21797;-77
2022/08/16 13:08:13;;;;;;;;;;;;;;;27.09;76.69;98717.18;1695231;83;20152;-74
2022/08/16 13:10:48;;;;;;;;;;;;;;;27.05;74.88;98718.69;1693271;84;20148;-84
2022/08/16 13:13:23;;;;;;;;;;;;;;;27.00;75.43;98725.48;1695463;84;20180;-72
2022/08/16 13:15:46;;;;;;;;;;;;;;;26.96;75.33;98730.61;1694514;84;20128;-80
2022/08/16 13:18:14;;;;;;;;;;;;;;;26.98;74.93;98722.33;1695413;84;20980;-84
2022/08/16 13:21:01;;;;;;;;;;;;;;;27.01;75.86;98718.63;1695413;84;20318;-76
2022/08/16 13:23:19;;;;;;;;;;;;;;;26.97;74.31;98722.95;1692473;84;20115;-75
2022/08/16 13:25:49;;;;;;;;;;;;;;;27.01;76.45;98718.63;1693969;84;20346;-75
2022/08/16 13:28:21;;;;;;;;;;;;;;;26.93;75.29;98723.02;1694393;84;20152;-83
2022/08/16 13:30:52;;;;;;;;;;;;;;;26.66;75.83;98723.98;1675463;84;20771;-82
2022/08/16 13:33:30;;;;;;;;;;;;;;;26.44;76.50;98720.19;1677622;84;20131;-80
2022/08/16 13:35:59;;;;;;;;;;;;;;;26.31;77.67;98715.28;1684330;84;20147;-85
2022/08/16 13:38:28;;;;;;;;;;;;;;;26.13;76.59;98719.75;1666681;86;20198;-82
2022/08/16 13:40:57;;;;;;;;;;;;;;;25.93;78.24;98718.46;1647225;86;20230;-81
2022/08/16 13:43:31;;;;;;;;;;;;;;;25.96;78.80;98715.56;1647342;86;20513;-83
2022/08/16 13:46:02;;;;;;;;;;;;;;;26.09;77.29;98704.98;1665931;86;20177;-81
2022/08/16 13:48:28;;;;;;;;;;;;;;;26.23;77.82;98701.81;1666467;86;20520;-71
2022/08/16 13:50:59;;;;;;;;;;;;;;;26.43;77.97;98701.72;1666654;86;20150;-81
2022/08/16 13:53:25;;;;;;;;;;;;;;;26.71;76.89;98702.33;1666610;86;20175;-77
2022/08/16 13:55:53;;;;;;;;;;;;;;;26.91;74.05;98697.95;1666489;86;21472;-81
2022/08/16 13:58:20;;;;;;;;;;;;;;;26.94;73.85;98695.65;1666748;86;20126;-84
2022/08/16 14:00:47;;;;;;;;;;;;;;;26.89;73.98;98697.60;1666597;86;20193;-72
2022/08/16 14:03:28;;;;;;;;;;;;;;;26.74;72.67;98696.42;1666615;86;20202;-76
2022/08/16 14:05:45;;;;;;;;;;;;;;;26.70;72.97;98690.89;1635971;86;20178;-76
2022/08/16 14:08:22;;;;;;;;;;;;;;;26.81;73.83;98694.20;1657965;86;21139;-76
2022/08/16 14:10:46;;;;;;;;;;;;;;;26.94;73.56;98695.03;1659018;86;20094;-70
2022/08/16 14:13:16;;;;;;;;;;;;;;;27.02;73.19;98686.41;1660400;86;20507;-77
2022/08/16 14:15:46;;;;;;;;;;;;;;;27.09;73.35;98685.58;1659797;86;20411;-81
2022/08/16 14:18:19;;;;;;;;;;;;;;;27.21;72.24;98690.41;1674614;83;20118;-75
2022/08/16 14:20:43;;;;;;;;;;;;;;;27.10;71.79;98690.59;1608630;87;21206;-77
2022/08/16 14:23:10;;;;;;;;;;;;;;;26.87;72.29;98701.48;1633054;88;20143;-80
2022/08/16 14:25:43;;;;;;;;;;;;;;;26.70;73.03;98708.41;1632977;87;20167;-76
2022/08/16 14:28:10;;;;;;;;;;;;;;;26.44;73.12;98708.94;1633656;88;20172;-75
2022/08/16 14:30:42;;;;;;;;;;;;;;;26.07;74.72;98718.08;1633976;88;20142;-76
2022/08/16 14:33:14;;;;;;;;;;;;;;;25.84;77.21;98716.88;1634252;88;21197;-76
2022/08/16 14:35:41;;;;;;;;;;;;;;;25.80;78.21;98717.58;1634210;88;20172;-77
2022/08/16 14:38:07;;;;;;;;;;;;;;;25.79;77.61;98720.21;1633904;88;20156;-76
2022/08/16 14:40:34;;;;;;;;;;;;;;;25.68;77.51;98720.46;1633864;88;20187;-76
2022/08/16 14:43:01;;;;;;;;;;;;;;;25.56;78.03;98719.09;1634218;88;20144;-76
2022/08/16 14:45:28;;;;;;;;;;;;;;;25.49;79.90;98708.02;1633997;88;21139;-76
2022/08/16 14:47:55;;;;;;;;;;;;;;;25.37;79.72;98716.36;1633925;87;20477;-76
2022/08/16 14:50:23;;;;;;;;;;;;;;;25.14;79.92;98716.64;1633571;88;20103;-77
2022/08/16 14:52:56;;;;;;;;;;;;;;;24.94;81.75;98716.62;1633743;88;20139;-75
2022/08/16 14:55:23;;;;;;;;;;;;;;;24.76;82.00;98721.83;1633561;88;20155;-74
2022/08/16 14:57:50;;;;;;;;;;;;;;;24.59;82.82;98723.75;1634162;88;21139;-75
2022/08/16 15:00:16;;;;;;;;;;;;;;;24.47;84.09;98719.38;1633963;88;20224;-76
2022/08/16 15:02:43;;;;;;;;;;;;;;;24.45;84.66;98724.62;1633664;88;20127;-75
2022/08/16 15:05:10;;;;;;;;;;;;;;;24.50;84.16;98712.91;1634370;88;20218;-74
2022/08/16 15:07:37;;;;;;;;;;;;;;;24.54;84.26;98716.44;1634413;88;20467;-75
2022/08/16 15:10:04;;;;;;;;;;;;;;;24.57;83.67;98714.97;1634408;88;21565;-73
2022/08/16 15:12:31;;;;;;;;;;;;;;;24.53;83.75;98714.85;1634018;88;20117;-75
2022/08/16 15:14:58;;;;;;;;;;;;;;;24.39;84.06;98706.09;1634497;88;20437;-75
2022/08/16 15:17:26;;;;;;;;;;;;;;;24.23;84.06;98706.77;1648113;85;20470;-76
2022/08/16 15:19:52;;;;;;;;;;;;;;;24.10;85.48;98707.81;1656896;85;20303;-75
2022/08/16 15:22:33;;;;;;;;;;;;;;;23.95;86.03;98714.26;1651653;86;21937;-75
2022/08/16 15:25:01;;;;;;;;;;;;;;;23.84;86.80;98713.64;1627230;88;20125;-76
2022/08/16 15:27:28;;;;;;;;;;;;;;;23.79;88.12;98710.70;1655419;86;20416;-74
2022/08/16 15:29:55;;;;;;;;;;;;;;;23.73;87.96;98708.81;1655608;86;20382;-76
2022/08/16 15:32:23;;;;;;;;;;;;;;;23.67;88.79;98705.11;1651517;87;20110;-76
2022/08/16 15:34:51;;;;;;;;;;;;;;;23.63;89.05;98708.58;1655876;86;21133;-75
2022/08/16 15:37:17;;;;;;;;;;;;;;;23.53;88.01;98715.13;1651489;87;20158;-76
2022/08/16 15:39:44;;;;;;;;;;;;;;;23.41;89.25;98728.89;1655563;86;20138;-75
2022/08/16 15:42:12;;;;;;;;;;;;;;;23.32;90.44;98726.00;1651770;87;20179;-76
2022/08/16 15:44:39;;;;;;;;;;;;;;;23.24;90.86;98727.30;1627357;88;20196;-76
2022/08/16 15:47:08;;;;;;;;;;;;;;;23.15;90.82;98731.83;1655345;86;21137;-76
2022/08/16 15:49:38;;;;;;;;;;;;;;;23.00;91.40;98734.04;1650260;87;20198;-76
2022/08/16 15:52:10;;;;;;;;;;;;;;;22.86;92.34;98734.21;1625513;88;20177;-76
2022/08/16 15:54:38;;;;;;;;;;;;;;;22.75;93.09;98731.50;1694431;84;20736;-78
2022/08/16 15:57:05;;;;;;;;;;;;;;;22.65;93.72;98732.41;1692621;84;20238;-78
2022/08/16 15:59:33;;;;;;;;;;;;;;;22.60;94.49;98728.67;1692943;84;21906;-82
2022/08/16 16:02:00;;;;;;;;;;;;;;;22.55;94.88;98730.52;1693452;84;20490;-85
2022/08/16 16:04:31;;;;;;;;;;;;;;;22.52;95.68;98727.19;1693148;84;20128;-73
2022/08/16 16:07:05;;;;;;;;;;;;;;;22.50;96.36;98727.60;1658988;86;20154;-74
2022/08/16 16:09:38;;;;;;;;;;;;;;;22.49;96.58;98726.62;1638651;86;20189;-79
2022/08/16 16:12:10;;;;;;;;;;;;;;;22.44;96.85;98721.47;1684634;83;20819;-83
2022/08/16 16:14:38;;;;;;;;;;;;;;;22.38;97.56;98726.12;1673562;84;20165;-79
2022/08/16 16:17:07;;;;;;;;;;;;;;;22.36;97.38;98729.94;1666463;86;20480;-77
2022/08/16 16:19:36;;;;;;;;;;;;;;;22.34;97.53;98732.34;1665053;86;20642;-85
2022/08/16 16:22:04;;;;;;;;;;;;;;;22.30;97.10;98735.78;1665927;86;20481;-86
2022/08/16 16:24:32;;;;;;;;;;;;;;;22.24;97.29;98740.23;1666177;86;21130;-85
2022/08/16 16:27:03;;;;;;;;;;;;;;;22.16;97.25;98745.69;1666563;86;20138;-85
2022/08/16 16:29:33;;;;;;;;;;;;;;;22.07;97.15;98762.14;1658849;86;20146;-74
2022/08/16 16:32:03;;;;;;;;;;;;;;;21.97;97.08;98770.77;1667099;86;20123;-74
2022/08/16 16:34:33;;;;;;;;;;;;;;;21.87;97.45;98775.06;1666728;86;20206;-75
2022/08/16 16:36:57;;;;;;;;;;;;;;;21.77;97.89;98786.50;1666191;86;21196;-79
2022/08/16 16:39:23;;;;;;;;;;;;;;;21.68;98.38;98793.94;1667162;86;20138;-76
2022/08/16 16:41:50;;;;;;;;;;;;;;;21.59;99.05;98793.58;1677831;84;20493;-75
2022/08/16 16:44:16;;;;;;;;;;;;;;;21.52;99.54;98804.00;1694627;84;20158;-76
2022/08/16 16:46:43;;;;;;;;;;;;;;;21.45;100.00;98811.02;1695294;83;20231;-72
2022/08/16 16:49:10;;;;;;;;;;;;;;;21.38;100.00;98818.22;1680624;84;21061;-72
2022/08/16 16:51:42;;;;;;;;;;;;;;;21.29;100.00;98817.09;1690734;85;20152;-73
2022/08/16 16:54:07;;;;;;;;;;;;;;;21.23;100.00;98822.89;1684014;85;20120;-71
2022/08/16 16:56:34;;;;;;;;;;;;;;;21.16;100.00;98822.89;1678805;83;20216;-73
2022/08/16 16:59:07;;;;;;;;;;;;;;;21.09;100.00;98826.49;1687191;85;20501;-73
2022/08/16 17:01:43;;;;;;;;;;;;;;;21.03;100.00;98827.50;1689765;85;21047;-78
2022/08/16 17:04:19;;;;;;;;;;;;;;;20.97;100.00;98829.12;1687823;85;20152;-72
2022/08/16 17:06:49;;;;;;;;;;;;;;;20.92;100.00;98822.55;1689007;85;20176;-72
2022/08/16 17:09:17;;;;;;;;;;;;;;;20.85;100.00;98829.55;1654604;85;20159;-72
2022/08/16 17:11:50;;;;;;;;;;;;;;;20.79;100.00;98824.80;1688580;85;20211;-73
2022/08/16 17:14:20;;;;;;;;;;;;;;;20.73;100.00;98827.20;1668803;85;20124;-72
2022/08/16 17:16:44;;;;;;;;;;;;;;;20.68;100.00;98829.00;1689692;85;20529;-72
2022/08/16 17:19:16;;;;;;;;;;;;;;;20.63;100.00;98823.23;1664588;86;20127;-72
2022/08/16 17:21:43;;;;;;;;;;;;;;;20.59;100.00;98821.64;1662372;86;20495;-72
2022/08/16 17:24:18;;;;;;;;;;;;;;;20.53;100.00;98824.63;1662329;86;20226;-74
2022/08/16 17:26:48;;;;;;;;;;;;;;;20.48;100.00;98829.22;1665358;86;20169;-72
2022/08/16 17:29:17;;;;;;;;;;;;;;;20.41;100.00;98828.02;1661800;86;20174;-72
2022/08/16 17:31:47;;;;;;;;;;;;;;;20.35;100.00;98830.98;1662365;86;20157;-75
2022/08/16 17:34:19;;;;;;;;;;;;;;;20.30;100.00;98829.98;1662095;85;20237;-74
2022/08/16 17:36:55;;;;;;;;;;;;;;;20.26;100.00;98837.55;1661038;86;20214;-74
2022/08/16 17:39:23;;;;;;;;;;;;;;;20.20;100.00;98839.16;1643223;86;21014;-76
2022/08/16 17:41:52;;;;;;;;;;;;;;;20.14;100.00;98842.14;1661924;85;20143;-75
2022/08/16 17:44:21;;;;;;;;;;;;;;;20.10;100.00;98834.37;1642405;86;20106;-76
2022/08/16 17:46:50;;;;;;;;;;;;;;;20.04;100.00;98831.19;1662146;86;20149;-76
2022/08/16 17:49:18;;;;;;;;;;;;;;;20.00;100.00;98829.58;1644938;85;20230;-77
2022/08/16 17:51:52;;;;;;;;;;;;;;;19.96;100.00;98825.99;1666918;86;22005;-82
2022/08/16 17:54:18;;;;;;;;;;;;;;;19.90;100.00;98823.40;1666609;84;20177;-75
2022/08/16 17:56:51;;;;;;;;;;;;;;;19.87;100.00;98821.41;1694682;84;20123;-74
2022/08/16 17:59:14;;;;;;;;;;;;;;;19.82;100.00;98821.79;1693335;83;20276;-74
2022/08/16 18:01:45;;;;;;;;;;;;;;;19.76;100.00;98829.13;1694450;84;20152;-73
2022/08/16 18:04:16;;;;;;;;;;;;;;;19.71;100.00;98824.55;1694382;84;21150;-75
2022/08/16 18:06:53;;;;;;;;;;;;;;;19.67;100.00;98818.17;1694745;84;20120;-73
2022/08/16 18:09:20;;;;;;;;;;;;;;;19.62;100.00;98817.99;1693697;84;20231;-73
2022/08/16 18:11:52;;;;;;;;;;;;;;;19.61;100.00;98823.36;1694542;84;20115;-70
2022/08/16 18:14:25;;;;;;;;;;;;;;;19.57;100.00;98835.08;1694081;84;20184;-73
2022/08/16 18:16:56;;;;;;;;;;;;;;;19.53;100.00;98839.83;1694885;84;21272;-73
2022/08/16 18:19:27;;;;;;;;;;;;;;;19.51;100.00;98837.21;1694148;84;20151;-73
2022/08/16 18:24:40;;;;;;;;;;;;;;;19.44;100.00;98853.29;1694846;84;20172;-74
2022/08/16 18:27:07;;;;;;;;;;;;;;;19.41;100.00;98858.24;1695017;83;20208;-72
2022/08/16 18:29:37;;;;;;;;;;;;;;;19.39;100.00;98865.59;1694004;84;21781;-79